sensor_id;sensor_type;location;lat;lon;timestamp;pressure;altitude;pressure_sealevel;temperature;humidity
59274;BME280;45044;41.572;24.730;2023-05-25T00:00:12;91383.56;;;9.00;100.00
59274;BME280;45044;41.572;24.730;2023-05-25T00:02:39;91382.03;;;8.98;100.00
59274;BME280;45044;41.572;24.730;2023-05-25T00:05:07;91377.53;;;8.99;100.00
59274;BME280;45044;41.572;24.730;2023-05-25T00:07:34;91379.03;;;9.00;100.00
59274;BME280;45044;41.572;24.730;2023-05-25T00:10:02;91383.03;;;8.83;100.00
59274;BME280;45044;41.572;24.730;2023-05-25T00:12:29;91380.38;;;8.79;100.00
59274;BME280;45044;41.572;24.730;2023-05-25T00:14:56;91379.59;;;8.79;100.00
59274;BME280;45044;41.572;24.730;2023-05-25T00:17:22;91371.00;;;8.82;100.00
59274;BME280;45044;41.572;24.730;2023-05-25T00:19:50;91378.19;;;8.85;100.00
59274;BME280;45044;41.572;24.730;2023-05-25T00:22:17;91376.69;;;8.88;100.00
59274;BME280;45044;41.572;24.730;2023-05-25T00:24:43;91366.97;;;8.88;100.00
59274;BME280;45044;41.572;24.730;2023-05-25T00:27:10;91372.25;;;8.92;100.00
59274;BME280;45044;41.572;24.730;2023-05-25T00:29:37;91380.41;;;8.83;100.00
59274;BME280;45044;41.572;24.730;2023-05-25T00:32:04;91377.78;;;8.83;100.00
59274;BME280;45044;41.572;24.730;2023-05-25T00:34:31;91376.66;;;8.84;100.00
59274;BME280;45044;41.572;24.730;2023-05-25T00:36:58;91376.66;;;8.84;100.00
59274;BME280;45044;41.572;24.730;2023-05-25T00:39:25;91368.38;;;8.82;100.00
59274;BME280;45044;41.572;24.730;2023-05-25T00:41:53;91366.91;;;8.81;100.00
59274;BME280;45044;41.572;24.730;2023-05-25T00:44:20;91371.38;;;8.80;100.00
59274;BME280;45044;41.572;24.730;2023-05-25T00:46:49;91370.53;;;8.72;100.00
59274;BME280;45044;41.572;24.730;2023-05-25T00:49:18;91371.75;;;8.44;100.00
59274;BME280;45044;41.572;24.730;2023-05-25T00:51:46;91370.69;;;8.53;100.00
59274;BME280;45044;41.572;24.730;2023-05-25T00:54:17;91377.16;;;8.59;100.00
59274;BME280;45044;41.572;24.730;2023-05-25T00:56:59;91375.59;;;8.54;100.00
59274;BME280;45044;41.572;24.730;2023-05-25T00:59:41;91375.13;;;8.45;100.00
59274;BME280;45044;41.572;24.730;2023-05-25T01:02:11;91372.94;;;8.50;100.00
59274;BME280;45044;41.572;24.730;2023-05-25T01:04:48;91374.47;;;8.55;100.00
59274;BME280;45044;41.572;24.730;2023-05-25T01:07:22;91366.56;;;8.51;100.00
59274;BME280;45044;41.572;24.730;2023-05-25T01:09:57;91371.81;;;8.51;100.00
59274;BME280;45044;41.572;24.730;2023-05-25T01:12:27;91365.84;;;8.55;100.00
59274;BME280;45044;41.572;24.730;2023-05-25T01:14:55;91373.00;;;8.58;100.00
59274;BME280;45044;41.572;24.730;2023-05-25T01:17:22;91373.31;;;8.53;100.00
59274;BME280;45044;41.572;24.730;2023-05-25T01:19:49;91373.97;;;8.42;100.00
59274;BME280;45044;41.572;24.730;2023-05-25T01:22:43;91363.88;;;8.10;100.00
59274;BME280;45044;41.572;24.730;2023-05-25T01:25:18;91362.50;;;8.23;100.00
59274;BME280;45044;41.572;24.730;2023-05-25T01:27:59;91357.34;;;8.31;100.00
59274;BME280;45044;41.572;24.730;2023-05-25T01:30:30;91364.19;;;8.39;100.00
59274;BME280;45044;41.572;24.730;2023-05-25T01:32:59;91357.50;;;8.45;100.00
59274;BME280;45044;41.572;24.730;2023-05-25T01:35:27;91359.03;;;8.46;100.00
59274;BME280;45044;41.572;24.730;2023-05-25T01:37:54;91339.34;;;8.25;100.00
59274;BME280;45044;41.572;24.730;2023-05-25T01:40:20;91357.59;;;8.18;100.00
59274;BME280;45044;41.572;24.730;2023-05-25T01:42:47;91358.41;;;8.22;100.00
59274;BME280;45044;41.572;24.730;2023-05-25T01:45:15;91360.81;;;8.04;100.00
59274;BME280;45044;41.572;24.730;2023-05-25T01:47:56;91354.19;;;8.14;100.00
59274;BME280;45044;41.572;24.730;2023-05-25T01:50:52;91361.47;;;7.97;100.00
59274;BME280;45044;41.572;24.730;2023-05-25T01:53:22;91350.59;;;7.95;100.00
59274;BME280;45044;41.572;24.730;2023-05-25T01:55:57;91345.81;;;8.01;100.00
59274;BME280;45044;41.572;24.730;2023-05-25T01:58:26;91348.16;;;8.10;100.00
59274;BME280;45044;41.572;24.730;2023-05-25T02:00:54;91348.06;;;8.02;100.00
59274;BME280;45044;41.572;24.730;2023-05-25T02:03:22;91355.25;;;8.09;100.00
59274;BME280;45044;41.572;24.730;2023-05-25T02:05:49;91359.03;;;8.12;100.00
59274;BME280;45044;41.572;24.730;2023-05-25T02:08:16;91359.06;;;8.15;100.00
59274;BME280;45044;41.572;24.730;2023-05-25T02:10:42;91363.22;;;8.20;100.00
59274;BME280;45044;41.572;24.730;2023-05-25T02:13:10;91368.34;;;8.09;100.00
59274;BME280;45044;41.572;24.730;2023-05-25T02:15:37;91364.63;;;8.10;100.00
59274;BME280;45044;41.572;24.730;2023-05-25T02:18:04;91363.94;;;8.17;100.00
59274;BME280;45044;41.572;24.730;2023-05-25T02:20:32;91365.09;;;8.20;100.00
59274;BME280;45044;41.572;24.730;2023-05-25T02:22:58;91368.44;;;8.17;100.00
59274;BME280;45044;41.572;24.730;2023-05-25T02:25:26;91368.78;;;8.15;100.00
59274;BME280;45044;41.572;24.730;2023-05-25T02:27:52;91370.00;;;8.21;100.00
59274;BME280;45044;41.572;24.730;2023-05-25T02:30:20;91369.41;;;8.05;100.00
59274;BME280;45044;41.572;24.730;2023-05-25T02:32:48;91368.97;;;7.99;100.00
59274;BME280;45044;41.572;24.730;2023-05-25T02:35:15;91368.22;;;7.98;100.00
59274;BME280;45044;41.572;24.730;2023-05-25T02:37:42;91374.56;;;7.97;100.00
59274;BME280;45044;41.572;24.730;2023-05-25T02:40:10;91368.53;;;7.93;100.00
59274;BME280;45044;41.572;24.730;2023-05-25T02:42:37;91362.94;;;7.95;100.00
59274;BME280;45044;41.572;24.730;2023-05-25T02:45:07;91372.41;;;8.03;100.00
59274;BME280;45044;41.572;24.730;2023-05-25T02:47:36;91372.75;;;8.01;100.00
59274;BME280;45044;41.572;24.730;2023-05-25T02:50:03;91374.19;;;7.99;100.00
59274;BME280;45044;41.572;24.730;2023-05-25T02:52:30;91375.38;;;8.01;100.00
59274;BME280;45044;41.572;24.730;2023-05-25T02:54:58;91382.09;;;8.02;100.00
59274;BME280;45044;41.572;24.730;2023-05-25T02:57:24;91383.22;;;8.01;100.00
59274;BME280;45044;41.572;24.730;2023-05-25T02:59:52;91383.19;;;7.98;100.00
59274;BME280;45044;41.572;24.730;2023-05-25T03:02:19;91383.91;;;7.98;100.00
59274;BME280;45044;41.572;24.730;2023-05-25T03:04:46;91386.94;;;8.00;100.00
59274;BME280;45044;41.572;24.730;2023-05-25T03:07:15;91386.88;;;7.97;100.00
59274;BME280;45044;41.572;24.730;2023-05-25T03:09:41;91393.50;;;7.87;100.00
59274;BME280;45044;41.572;24.730;2023-05-25T03:12:08;91396.41;;;7.82;100.00
59274;BME280;45044;41.572;24.730;2023-05-25T03:14:35;91394.97;;;7.84;100.00
59274;BME280;45044;41.572;24.730;2023-05-25T03:17:03;91384.59;;;7.91;100.00
59274;BME280;45044;41.572;24.730;2023-05-25T03:19:29;91395.19;;;8.02;100.00
59274;BME280;45044;41.572;24.730;2023-05-25T03:21:57;91398.94;;;8.05;100.00
59274;BME280;45044;41.572;24.730;2023-05-25T03:24:24;91396.81;;;8.14;100.00
59274;BME280;45044;41.572;24.730;2023-05-25T03:26:52;91401.72;;;8.16;100.00
59274;BME280;45044;41.572;24.730;2023-05-25T03:29:19;91400.69;;;8.24;100.00
59274;BME280;45044;41.572;24.730;2023-05-25T03:31:46;91394.66;;;8.20;100.00
59274;BME280;45044;41.572;24.730;2023-05-25T03:34:13;91391.47;;;8.03;100.00
59274;BME280;45044;41.572;24.730;2023-05-25T03:36:40;91403.22;;;8.17;100.00
59274;BME280;45044;41.572;24.730;2023-05-25T03:39:11;91402.91;;;8.22;100.00
59274;BME280;45044;41.572;24.730;2023-05-25T03:41:38;91405.19;;;8.24;100.00
59274;BME280;45044;41.572;24.730;2023-05-25T03:44:05;91407.53;;;8.33;100.00
59274;BME280;45044;41.572;24.730;2023-05-25T03:46:32;91410.94;;;8.37;100.00
59274;BME280;45044;41.572;24.730;2023-05-25T03:48:58;91401.59;;;8.36;100.00
59274;BME280;45044;41.572;24.730;2023-05-25T03:51:25;91420.47;;;8.53;100.00
59274;BME280;45044;41.572;24.730;2023-05-25T03:53:53;91414.56;;;8.56;100.00
59274;BME280;45044;41.572;24.730;2023-05-25T03:56:20;91416.88;;;8.61;100.00
59274;BME280;45044;41.572;24.730;2023-05-25T03:58:47;91410.19;;;8.67;100.00
59274;BME280;45044;41.572;24.730;2023-05-25T04:01:13;91406.88;;;8.70;100.00
59274;BME280;45044;41.572;24.730;2023-05-25T04:03:42;91418.19;;;8.82;100.00
59274;BME280;45044;41.572;24.730;2023-05-25T04:06:09;91416.38;;;8.86;100.00
59274;BME280;45044;41.572;24.730;2023-05-25T04:08:35;91421.69;;;8.93;100.00
59274;BME280;45044;41.572;24.730;2023-05-25T04:11:02;91416.50;;;9.01;100.00
59274;BME280;45044;41.572;24.730;2023-05-25T04:13:29;91414.97;;;8.96;100.00
59274;BME280;45044;41.572;24.730;2023-05-25T04:15:56;91414.84;;;8.81;100.00
59274;BME280;45044;41.572;24.730;2023-05-25T04:18:22;91430.03;;;9.03;100.00
59274;BME280;45044;41.572;24.730;2023-05-25T04:20:49;91427.13;;;9.15;100.00
59274;BME280;45044;41.572;24.730;2023-05-25T04:23:16;91427.19;;;9.19;100.00
59274;BME280;45044;41.572;24.730;2023-05-25T04:25:44;91424.25;;;9.28;100.00
59274;BME280;45044;41.572;24.730;2023-05-25T04:28:12;91429.56;;;9.35;100.00
59274;BME280;45044;41.572;24.730;2023-05-25T04:30:38;91417.63;;;9.41;100.00
59274;BME280;45044;41.572;24.730;2023-05-25T04:33:08;91433.84;;;9.58;100.00
59274;BME280;45044;41.572;24.730;2023-05-25T04:35:37;91433.16;;;9.61;100.00
59274;BME280;45044;41.572;24.730;2023-05-25T04:38:03;91428.31;;;9.70;100.00
59274;BME280;45044;41.572;24.730;2023-05-25T04:40:30;91424.28;;;9.84;100.00
59274;BME280;45044;41.572;24.730;2023-05-25T04:43:00;91428.28;;;11.42;100.00
59274;BME280;45044;41.572;24.730;2023-05-25T04:45:27;91430.94;;;13.12;100.00
59274;BME280;45044;41.572;24.730;2023-05-25T04:47:55;91436.25;;;14.88;100.00
59274;BME280;45044;41.572;24.730;2023-05-25T04:50:23;91440.94;;;16.11;100.00
59274;BME280;45044;41.572;24.730;2023-05-25T04:52:50;91431.69;;;17.05;100.00
59274;BME280;45044;41.572;24.730;2023-05-25T04:55:17;91435.69;;;17.67;100.00
59274;BME280;45044;41.572;24.730;2023-05-25T04:57:44;91436.31;;;18.38;100.00
59274;BME280;45044;41.572;24.730;2023-05-25T05:00:11;91448.78;;;18.71;100.00
59274;BME280;45044;41.572;24.730;2023-05-25T05:02:40;91444.16;;;19.57;100.00
59274;BME280;45044;41.572;24.730;2023-05-25T05:05:08;91433.00;;;19.97;100.00
59274;BME280;45044;41.572;24.730;2023-05-25T05:07:35;91435.75;;;20.78;100.00
59274;BME280;45044;41.572;24.730;2023-05-25T05:10:02;91437.25;;;21.24;100.00
59274;BME280;45044;41.572;24.730;2023-05-25T05:12:30;91442.13;;;21.89;89.28
59274;BME280;45044;41.572;24.730;2023-05-25T05:14:56;91430.72;;;22.17;87.16
59274;BME280;45044;41.572;24.730;2023-05-25T05:17:23;91436.25;;;22.41;84.63
59274;BME280;45044;41.572;24.730;2023-05-25T05:19:51;91435.31;;;23.10;79.12
59274;BME280;45044;41.572;24.730;2023-05-25T05:22:18;91435.56;;;23.84;72.85
59274;BME280;45044;41.572;24.730;2023-05-25T05:24:45;91436.41;;;24.24;69.74
59274;BME280;45044;41.572;24.730;2023-05-25T05:27:14;91436.13;;;24.12;69.79
59274;BME280;45044;41.572;24.730;2023-05-25T05:29:41;91435.47;;;24.27;69.00
59274;BME280;45044;41.572;24.730;2023-05-25T05:32:08;91429.66;;;24.68;64.39
59274;BME280;45044;41.572;24.730;2023-05-25T05:34:35;91424.91;;;25.03;63.25
59274;BME280;45044;41.572;24.730;2023-05-25T05:37:03;91415.91;;;25.36;61.74
59274;BME280;45044;41.572;24.730;2023-05-25T05:39:29;91422.63;;;25.77;58.65
59274;BME280;45044;41.572;24.730;2023-05-25T05:41:56;91421.88;;;25.61;59.57
59274;BME280;45044;41.572;24.730;2023-05-25T05:44:23;91408.56;;;25.52;59.32
59274;BME280;45044;41.572;24.730;2023-05-25T05:46:55;91414.41;;;26.43;57.03
59274;BME280;45044;41.572;24.730;2023-05-25T05:49:28;91423.47;;;27.41;54.96
59274;BME280;45044;41.572;24.730;2023-05-25T05:51:55;91417.16;;;28.31;50.39
59274;BME280;45044;41.572;24.730;2023-05-25T05:54:22;91417.53;;;28.62;49.43
59274;BME280;45044;41.572;24.730;2023-05-25T05:56:49;91410.75;;;28.29;50.47
59274;BME280;45044;41.572;24.730;2023-05-25T05:59:16;91411.94;;;28.89;49.85
59274;BME280;45044;41.572;24.730;2023-05-25T06:01:43;91409.50;;;29.08;49.86
59274;BME280;45044;41.572;24.730;2023-05-25T06:04:10;91404.88;;;29.49;48.30
59274;BME280;45044;41.572;24.730;2023-05-25T06:06:36;91401.91;;;29.41;48.40
59274;BME280;45044;41.572;24.730;2023-05-25T06:09:04;91400.69;;;29.42;49.18
59274;BME280;45044;41.572;24.730;2023-05-25T06:11:33;91403.63;;;29.33;49.58
59274;BME280;45044;41.572;24.730;2023-05-25T06:14:01;91402.81;;;30.12;48.32
59274;BME280;45044;41.572;24.730;2023-05-25T06:16:28;91394.81;;;30.55;45.85
59274;BME280;45044;41.572;24.730;2023-05-25T06:18:55;91399.84;;;30.10;45.37
59274;BME280;45044;41.572;24.730;2023-05-25T06:21:22;91395.34;;;27.21;50.66
59274;BME280;45044;41.572;24.730;2023-05-25T06:23:48;91398.44;;;28.22;50.51
59274;BME280;45044;41.572;24.730;2023-05-25T06:26:15;91396.75;;;29.37;48.33
59274;BME280;45044;41.572;24.730;2023-05-25T06:28:42;91392.91;;;27.99;51.75
59274;BME280;45044;41.572;24.730;2023-05-25T06:31:09;91394.69;;;28.69;50.17
59274;BME280;45044;41.572;24.730;2023-05-25T06:33:38;91399.53;;;27.22;54.24
59274;BME280;45044;41.572;24.730;2023-05-25T06:36:05;91387.34;;;26.31;58.21
59274;BME280;45044;41.572;24.730;2023-05-25T06:38:32;91390.78;;;26.53;60.51
59274;BME280;45044;41.572;24.730;2023-05-25T06:40:59;91387.38;;;25.59;63.92
59274;BME280;45044;41.572;24.730;2023-05-25T06:43:30;91390.94;;;24.90;67.17
59274;BME280;45044;41.572;24.730;2023-05-25T06:45:57;91384.06;;;24.59;72.70
59274;BME280;45044;41.572;24.730;2023-05-25T06:48:24;91378.28;;;25.72;68.49
59274;BME280;45044;41.572;24.730;2023-05-25T06:50:51;91384.56;;;26.67;66.64
59274;BME280;45044;41.572;24.730;2023-05-25T06:53:18;91389.31;;;27.05;62.35
59274;BME280;45044;41.572;24.730;2023-05-25T06:55:45;91383.06;;;26.25;61.10
59274;BME280;45044;41.572;24.730;2023-05-25T06:58:12;91387.19;;;25.63;69.08
59274;BME280;45044;41.572;24.730;2023-05-25T07:00:38;91393.50;;;23.56;95.40
59274;BME280;45044;41.572;24.730;2023-05-25T07:03:05;91390.53;;;23.01;100.00
59274;BME280;45044;41.572;24.730;2023-05-25T07:05:32;91387.81;;;20.97;100.00
59274;BME280;45044;41.572;24.730;2023-05-25T07:07:59;91393.56;;;22.66;100.00
59274;BME280;45044;41.572;24.730;2023-05-25T07:10:25;91391.97;;;24.38;93.85
59274;BME280;45044;41.572;24.730;2023-05-25T07:12:52;91387.81;;;25.22;82.49
59274;BME280;45044;41.572;24.730;2023-05-25T07:15:19;91391.44;;;24.49;85.98
59274;BME280;45044;41.572;24.730;2023-05-25T07:17:47;91380.88;;;24.45;92.41
59274;BME280;45044;41.572;24.730;2023-05-25T07:20:13;91376.69;;;26.01;70.96
59274;BME280;45044;41.572;24.730;2023-05-25T07:22:41;91381.78;;;24.27;65.32
59274;BME280;45044;41.572;24.730;2023-05-25T07:25:09;91381.16;;;23.40;61.50
59274;BME280;45044;41.572;24.730;2023-05-25T07:27:35;91381.38;;;22.55;69.75
59274;BME280;45044;41.572;24.730;2023-05-25T07:30:03;91375.25;;;22.45;69.88
59274;BME280;45044;41.572;24.730;2023-05-25T07:32:30;91386.72;;;23.27;71.18
59274;BME280;45044;41.572;24.730;2023-05-25T07:34:57;91376.56;;;23.74;65.56
59274;BME280;45044;41.572;24.730;2023-05-25T07:37:24;91389.25;;;24.23;64.34
59274;BME280;45044;41.572;24.730;2023-05-25T07:39:50;91381.13;;;23.15;58.02
59274;BME280;45044;41.572;24.730;2023-05-25T07:42:17;91384.81;;;23.61;58.44
59274;BME280;45044;41.572;24.730;2023-05-25T07:44:47;91380.25;;;24.50;62.32
59274;BME280;45044;41.572;24.730;2023-05-25T07:47:14;91371.16;;;25.03;57.05
59274;BME280;45044;41.572;24.730;2023-05-25T07:49:41;91381.56;;;24.70;56.20
59274;BME280;45044;41.572;24.730;2023-05-25T07:52:07;91374.28;;;24.86;52.56
59274;BME280;45044;41.572;24.730;2023-05-25T07:54:34;91371.25;;;24.38;50.71
59274;BME280;45044;41.572;24.730;2023-05-25T07:57:05;91374.97;;;24.56;60.01
59274;BME280;45044;41.572;24.730;2023-05-25T07:59:33;91378.81;;;24.25;57.37
59274;BME280;45044;41.572;24.730;2023-05-25T08:02:00;91362.31;;;22.44;64.54
59274;BME280;45044;41.572;24.730;2023-05-25T08:04:30;91376.41;;;23.01;59.01
59274;BME280;45044;41.572;24.730;2023-05-25T08:06:57;91370.50;;;23.21;57.84
59274;BME280;45044;41.572;24.730;2023-05-25T08:09:25;91373.56;;;23.04;65.56
59274;BME280;45044;41.572;24.730;2023-05-25T08:11:52;91375.44;;;23.66;60.05
59274;BME280;45044;41.572;24.730;2023-05-25T08:14:38;91377.00;;;23.39;61.31
59274;BME280;45044;41.572;24.730;2023-05-25T08:17:05;91372.94;;;23.53;58.77
59274;BME280;45044;41.572;24.730;2023-05-25T08:19:32;91375.97;;;22.93;63.47
59274;BME280;45044;41.572;24.730;2023-05-25T08:21:59;91369.28;;;22.88;56.33
59274;BME280;45044;41.572;24.730;2023-05-25T08:24:26;91370.59;;;23.02;57.61
59274;BME280;45044;41.572;24.730;2023-05-25T08:26:52;91360.19;;;22.95;57.83
59274;BME280;45044;41.572;24.730;2023-05-25T08:29:20;91372.13;;;23.71;57.88
59274;BME280;45044;41.572;24.730;2023-05-25T08:31:47;91373.03;;;23.92;54.66
59274;BME280;45044;41.572;24.730;2023-05-25T08:34:15;91364.19;;;23.77;55.90
59274;BME280;45044;41.572;24.730;2023-05-25T08:36:42;91361.81;;;24.43;55.90
59274;BME280;45044;41.572;24.730;2023-05-25T08:39:10;91367.53;;;23.87;58.84
59274;BME280;45044;41.572;24.730;2023-05-25T08:41:41;91369.84;;;23.36;66.28
59274;BME280;45044;41.572;24.730;2023-05-25T08:44:09;91380.41;;;23.49;74.67
59274;BME280;45044;41.572;24.730;2023-05-25T08:46:36;91378.03;;;22.98;58.90
59274;BME280;45044;41.572;24.730;2023-05-25T08:51:37;91388.41;;;23.15;56.02
59274;BME280;45044;41.572;24.730;2023-05-25T08:54:09;91388.78;;;22.79;67.18
59274;BME280;45044;41.572;24.730;2023-05-25T08:56:48;91386.31;;;21.69;100.00
59274;BME280;45044;41.572;24.730;2023-05-25T08:59:30;91381.06;;;22.25;98.71
59274;BME280;45044;41.572;24.730;2023-05-25T09:04:42;91387.41;;;21.81;92.38
59274;BME280;45044;41.572;24.730;2023-05-25T09:07:09;91392.06;;;21.58;99.67
59274;BME280;45044;41.572;24.730;2023-05-25T09:09:37;91398.16;;;21.58;92.89
59274;BME280;45044;41.572;24.730;2023-05-25T09:12:06;91408.16;;;21.26;100.00
59274;BME280;45044;41.572;24.730;2023-05-25T09:14:34;91407.28;;;20.17;100.00
59274;BME280;45044;41.572;24.730;2023-05-25T09:17:03;91410.84;;;19.74;100.00
59274;BME280;45044;41.572;24.730;2023-05-25T09:19:31;91414.72;;;19.60;100.00
59274;BME280;45044;41.572;24.730;2023-05-25T09:21:59;91416.00;;;19.30;100.00
59274;BME280;45044;41.572;24.730;2023-05-25T09:24:40;91426.50;;;19.07;100.00
59274;BME280;45044;41.572;24.730;2023-05-25T09:27:10;91419.81;;;19.29;100.00
59274;BME280;45044;41.572;24.730;2023-05-25T09:29:37;91417.94;;;18.86;100.00
59274;BME280;45044;41.572;24.730;2023-05-25T09:32:04;91416.97;;;18.50;100.00
59274;BME280;45044;41.572;24.730;2023-05-25T09:34:34;91417.31;;;18.52;100.00
59274;BME280;45044;41.572;24.730;2023-05-25T09:37:15;91409.66;;;18.54;100.00
59274;BME280;45044;41.572;24.730;2023-05-25T09:39:43;91405.69;;;18.89;100.00
59274;BME280;45044;41.572;24.730;2023-05-25T09:42:10;91400.22;;;19.48;100.00
59274;BME280;45044;41.572;24.730;2023-05-25T09:44:38;91387.78;;;19.94;100.00
59274;BME280;45044;41.572;24.730;2023-05-25T09:47:05;91393.78;;;20.33;100.00
59274;BME280;45044;41.572;24.730;2023-05-25T09:49:32;91390.75;;;20.09;100.00
59274;BME280;45044;41.572;24.730;2023-05-25T09:51:59;91401.38;;;20.22;100.00
59274;BME280;45044;41.572;24.730;2023-05-25T09:54:27;91399.03;;;20.46;100.00
59274;BME280;45044;41.572;24.730;2023-05-25T09:56:55;91400.13;;;20.49;100.00
59274;BME280;45044;41.572;24.730;2023-05-25T09:59:22;91391.88;;;20.88;85.21
59274;BME280;45044;41.572;24.730;2023-05-25T10:01:50;91403.41;;;20.76;85.37
59274;BME280;45044;41.572;24.730;2023-05-25T10:04:20;91401.59;;;20.50;94.00
59274;BME280;45044;41.572;24.730;2023-05-25T10:06:47;91395.13;;;20.38;98.31
59274;BME280;45044;41.572;24.730;2023-05-25T10:09:18;91402.03;;;20.49;97.15
59274;BME280;45044;41.572;24.730;2023-05-25T10:11:45;91383.84;;;20.79;86.08
59274;BME280;45044;41.572;24.730;2023-05-25T10:14:22;91376.63;;;21.11;87.42
59274;BME280;45044;41.572;24.730;2023-05-25T10:16:57;91381.03;;;21.05;100.00
59274;BME280;45044;41.572;24.730;2023-05-25T10:19:30;91376.88;;;21.04;95.39
59274;BME280;45044;41.572;24.730;2023-05-25T10:22:03;91373.44;;;21.35;94.06
59274;BME280;45044;41.572;24.730;2023-05-25T10:24:50;91383.91;;;21.61;100.00
59274;BME280;45044;41.572;24.730;2023-05-25T10:27:23;91372.28;;;21.46;88.65
59274;BME280;45044;41.572;24.730;2023-05-25T10:29:55;91365.28;;;22.08;96.70
59274;BME280;45044;41.572;24.730;2023-05-25T10:32:23;91359.34;;;22.04;100.00
59274;BME280;45044;41.572;24.730;2023-05-25T10:34:51;91367.84;;;21.52;86.77
59274;BME280;45044;41.572;24.730;2023-05-25T10:37:19;91365.44;;;21.35;100.00
59274;BME280;45044;41.572;24.730;2023-05-25T10:39:47;91375.28;;;20.84;100.00
59274;BME280;45044;41.572;24.730;2023-05-25T10:42:17;91370.72;;;20.27;100.00
59274;BME280;45044;41.572;24.730;2023-05-25T10:44:44;91377.31;;;19.99;100.00
59274;BME280;45044;41.572;24.730;2023-05-25T10:47:14;91376.25;;;19.97;100.00
59274;BME280;45044;41.572;24.730;2023-05-25T10:49:55;91374.19;;;20.14;100.00
59274;BME280;45044;41.572;24.730;2023-05-25T10:52:30;91373.59;;;20.10;100.00
59274;BME280;45044;41.572;24.730;2023-05-25T10:55:00;91384.38;;;19.93;100.00
59274;BME280;45044;41.572;24.730;2023-05-25T10:57:29;91388.41;;;20.11;100.00
59274;BME280;45044;41.572;24.730;2023-05-25T11:00:05;91389.25;;;20.43;100.00
59274;BME280;45044;41.572;24.730;2023-05-25T11:02:51;91389.91;;;20.79;100.00
59274;BME280;45044;41.572;24.730;2023-05-25T11:07:57;91380.81;;;21.22;100.00
59274;BME280;45044;41.572;24.730;2023-05-25T11:13:23;91363.06;;;21.47;100.00
59274;BME280;45044;41.572;24.730;2023-05-25T11:18:41;91369.03;;;22.20;100.00
59274;BME280;45044;41.572;24.730;2023-05-25T11:21:13;91369.75;;;22.30;100.00
59274;BME280;45044;41.572;24.730;2023-05-25T11:26:26;91376.13;;;21.45;100.00
59274;BME280;45044;41.572;24.730;2023-05-25T11:28:54;91362.19;;;21.09;100.00
59274;BME280;45044;41.572;24.730;2023-05-25T11:31:27;91359.88;;;20.66;100.00
59274;BME280;45044;41.572;24.730;2023-05-25T11:34:05;91354.50;;;19.85;100.00
59274;BME280;45044;41.572;24.730;2023-05-25T11:36:35;91365.03;;;19.54;100.00
59274;BME280;45044;41.572;24.730;2023-05-25T11:39:04;91358.53;;;19.55;100.00
59274;BME280;45044;41.572;24.730;2023-05-25T11:41:47;91358.13;;;19.17;100.00
59274;BME280;45044;41.572;24.730;2023-05-25T11:44:14;91368.47;;;19.15;100.00
59274;BME280;45044;41.572;24.730;2023-05-25T11:46:41;91367.53;;;18.66;100.00
59274;BME280;45044;41.572;24.730;2023-05-25T11:49:09;91362.97;;;18.92;100.00
59274;BME280;45044;41.572;24.730;2023-05-25T11:51:36;91370.69;;;19.17;100.00
59274;BME280;45044;41.572;24.730;2023-05-25T11:54:03;91369.63;;;19.40;100.00
59274;BME280;45044;41.572;24.730;2023-05-25T11:56:31;91371.00;;;19.58;100.00
59274;BME280;45044;41.572;24.730;2023-05-25T11:59:01;91369.81;;;19.07;100.00
59274;BME280;45044;41.572;24.730;2023-05-25T12:01:32;91371.88;;;19.29;100.00
59274;BME280;45044;41.572;24.730;2023-05-25T12:04:07;91368.41;;;19.67;100.00
59274;BME280;45044;41.572;24.730;2023-05-25T12:06:34;91372.50;;;19.59;100.00
59274;BME280;45044;41.572;24.730;2023-05-25T12:09:10;91367.78;;;19.63;100.00
59274;BME280;45044;41.572;24.730;2023-05-25T12:11:38;91356.38;;;19.62;100.00
59274;BME280;45044;41.572;24.730;2023-05-25T12:14:07;91364.09;;;19.83;100.00
59274;BME280;45044;41.572;24.730;2023-05-25T12:16:35;91360.50;;;19.77;100.00
59274;BME280;45044;41.572;24.730;2023-05-25T12:19:05;91360.66;;;19.60;100.00
59274;BME280;45044;41.572;24.730;2023-05-25T12:21:33;91352.22;;;19.48;100.00
59274;BME280;45044;41.572;24.730;2023-05-25T12:24:03;91359.41;;;19.12;100.00
59274;BME280;45044;41.572;24.730;2023-05-25T12:26:31;91356.41;;;18.97;100.00
59274;BME280;45044;41.572;24.730;2023-05-25T12:29:02;91354.94;;;19.22;100.00
59274;BME280;45044;41.572;24.730;2023-05-25T12:31:31;91356.84;;;19.35;100.00
59274;BME280;45044;41.572;24.730;2023-05-25T12:34:09;91352.88;;;19.53;100.00
59274;BME280;45044;41.572;24.730;2023-05-25T12:36:46;91358.00;;;19.34;100.00
59274;BME280;45044;41.572;24.730;2023-05-25T12:39:15;91347.00;;;19.45;100.00
59274;BME280;45044;41.572;24.730;2023-05-25T12:41:43;91350.78;;;18.52;100.00
59274;BME280;45044;41.572;24.730;2023-05-25T12:44:21;91348.09;;;18.52;100.00
59274;BME280;45044;41.572;24.730;2023-05-25T12:46:50;91351.34;;;18.73;100.00
59274;BME280;45044;41.572;24.730;2023-05-25T12:49:29;91350.19;;;18.87;100.00
59274;BME280;45044;41.572;24.730;2023-05-25T12:51:58;91348.56;;;18.64;100.00
59274;BME280;45044;41.572;24.730;2023-05-25T12:54:51;91352.66;;;19.08;100.00
59274;BME280;45044;41.572;24.730;2023-05-25T12:57:18;91354.41;;;19.27;100.00
59274;BME280;45044;41.572;24.730;2023-05-25T12:59:45;91347.16;;;19.15;100.00
59274;BME280;45044;41.572;24.730;2023-05-25T13:02:13;91353.19;;;18.89;100.00
59274;BME280;45044;41.572;24.730;2023-05-25T13:04:40;91344.72;;;19.21;100.00
59274;BME280;45044;41.572;24.730;2023-05-25T13:07:08;91345.84;;;19.33;100.00
59274;BME280;45044;41.572;24.730;2023-05-25T13:09:35;91354.41;;;19.27;100.00
59274;BME280;45044;41.572;24.730;2023-05-25T13:12:03;91339.63;;;19.62;100.00